Etusivu
METAR-TAF:

METAR-TAF

Lentoasemat :

New Orleans, Louisiana, Yhdysvallat

Leveyspiiri: 30-02-58N, Pituuspiiri: 090-01-44W, korkeus merenpinnasta: 2 m

Tämänhetkinen sää

Tämä raportti tehtiin 28 minuuttia sitten, kello 14.53 UTC
Tuuli 7 kn lännestä
Lämpötila 9°C
Kosteus 71%
Ilmanpaine 1020 hPa
Näkyvyys: 16.1 km
Pilvistä 11000 ft:n korkeudessa

METAR: KNEW 171453Z 27007KT 10SM OVC110 09/04 A3013 RMK AO2 SLP196 T00940039 51016

Aika: 09:21 (15:21 UTC)

Sääennuste

Tämä raportti tehtiin 3 tuntia ja 52 minuuttia sitten, kello 11.29 UTC
Ennuste voimassa 17. päivästä klo 12 UTC - 18. päivään klo 12 UTC
Tuuli 4 kn etelästä/lounaasta
Näkyvyys: 10 km
selkeää

TAF: KNEW 171129Z 1712/1812 21004KT P6SM SKC

Säähavainnot ja -ennusteet yli 4000 lentoasemalta (METAR- ja TAF-raportit).

Käytössä olevat sääasemat on merkitty karttaan keltaisilla ja punaisilla pisteillä.

Aseta hiiri pisteen päälle nähdäksesi sääaseman nimen.

Klikkaa sitten nähdäksesi säähavainnot ja -ennusteet.

Kartan vaihtaminen: klikkaa mustalla rastilla varustettuja vihreitä pisteitä, niin voit zoomata sisään; viivalla varustettua vihreää pistettä, niin voit zoomata ulos tai vihreitä nuolia, niin pääset viereisille kartoille.


METAR-TAF: